Time;durP1;ratioP1;P1;durP2;ratioP2;P2;SDS_P1;SDS_P2;PMS_P1;PMS_P2;Temp;Humidity;BMP_temperature;BMP_pressure;BME280_temperature;BME280_humidity;BME280_pressure;Samples;Min_cycle;Max_cycle;Signal;HPM_P1;HPM_P2
2023/01/12 00:01:39;;;;;;;1.30;1.17;;;7.40;98.00;;;;;;5012421;28;20461;-75
2023/01/12 00:04:07;;;;;;;1.30;1.20;;;7.40;98.00;;;;;;5012459;28;21002;-75
2023/01/12 00:06:35;;;;;;;1.20;1.17;;;7.40;98.00;;;;;;5012366;28;20473;-75
2023/01/12 00:09:06;;;;;;;2.50;1.97;;;7.40;98.00;;;;;;5012522;28;20463;-74
2023/01/12 00:11:33;;;;;;;1.77;1.20;;;7.40;98.00;;;;;;4995263;28;20459;-74
2023/01/12 00:14:01;;;;;;;1.77;1.20;;;7.30;98.00;;;;;;5012484;28;20837;-74
2023/01/12 00:16:36;;;;;;;3.20;1.30;;;7.20;98.00;;;;;;5012318;28;20517;-75
2023/01/12 00:19:05;;;;;;;1.20;1.00;;;7.30;98.00;;;;;;4996308;28;20526;-74
2023/01/12 00:21:35;;;;;;;2.50;1.57;;;7.20;98.00;;;;;;5012484;28;20946;-74
2023/01/12 00:24:07;;;;;;;3.43;1.17;;;7.20;98.00;;;;;;5012586;28;20871;-75
2023/01/12 00:26:34;;;;;;;1.50;1.20;;;7.10;98.00;;;;;;4995309;28;20854;-75
2023/01/12 00:29:01;;;;;;;4.50;1.47;;;7.20;98.00;;;;;;5012300;28;20467;-74
2023/01/12 00:31:29;;;;;;;1.30;1.10;;;7.20;98.00;;;;;;5012256;28;20498;-75
2023/01/12 00:33:57;;;;;;;1.10;1.00;;;7.20;98.00;;;;;;4995060;28;20457;-75
2023/01/12 00:36:25;;;;;;;1.77;1.17;;;7.20;98.00;;;;;;4994785;28;20514;-74
2023/01/12 00:38:52;;;;;;;2.07;1.30;;;7.20;98.00;;;;;;4995010;28;20834;-75
2023/01/12 00:46:46;;;;;;;3.27;1.20;;;7.40;98.00;;;;;;5011376;28;20473;-75
2023/01/12 00:49:13;;;;;;;1.57;1.10;;;7.40;98.00;;;;;;4994395;28;20450;-75
2023/01/12 00:51:41;;;;;;;1.20;1.10;;;7.40;98.00;;;;;;5011642;28;20460;-75
2023/01/12 00:54:08;;;;;;;1.20;1.20;;;7.30;98.00;;;;;;5011849;28;20463;-74
2023/01/12 00:56:37;;;;;;;1.17;1.17;;;7.40;98.00;;;;;;5011682;28;20860;-74
2023/01/12 00:59:05;;;;;;;3.97;1.27;;;7.30;98.00;;;;;;5012063;28;20456;-74
2023/01/12 01:01:33;;;;;;;2.50;1.10;;;7.40;98.00;;;;;;5011806;28;20522;-74
2023/01/12 01:04:00;;;;;;;1.20;1.10;;;7.40;98.00;;;;;;5011648;28;20467;-74
2023/01/12 01:06:27;;;;;;;1.10;1.00;;;7.40;98.00;;;;;;5011554;28;20551;-74
2023/01/12 01:08:55;;;;;;;3.53;1.77;;;7.40;98.00;;;;;;5011658;28;20459;-75
2023/01/12 01:11:22;;;;;;;1.30;1.10;;;7.50;98.00;;;;;;5011446;28;20464;-75
2023/01/12 01:13:50;;;;;;;1.60;1.20;;;7.50;98.00;;;;;;4994308;28;20472;-74
2023/01/12 01:16:18;;;;;;;3.63;1.30;;;7.40;98.00;;;;;;5011696;28;20493;-74
2023/01/12 01:18:46;;;;;;;1.53;1.20;;;7.40;98.00;;;;;;5011980;28;20978;-74
2023/01/12 01:21:14;;;;;;;2.30;1.33;;;7.50;98.00;;;;;;5011445;28;20472;-74
2023/01/12 01:23:42;;;;;;;3.73;1.23;;;7.50;98.00;;;;;;4977987;28;20829;-74
2023/01/12 01:26:12;;;;;;;1.30;1.10;;;7.60;98.00;;;;;;5012612;28;20556;-74
2023/01/12 01:28:39;;;;;;;2.47;1.10;;;7.50;98.00;;;;;;4994115;28;20480;-75
2023/01/12 01:31:11;;;;;;;1.20;1.00;;;7.60;98.00;;;;;;5012586;28;20462;-74
2023/01/12 01:33:38;;;;;;;1.67;1.37;;;7.50;98.00;;;;;;5011991;28;20475;-74
2023/01/12 01:36:07;;;;;;;1.63;1.40;;;7.50;98.00;;;;;;5011612;28;20471;-75
2023/01/12 01:38:35;;;;;;;1.20;1.10;;;7.50;98.00;;;;;;5011738;28;20809;-75
2023/01/12 01:41:02;;;;;;;3.20;1.20;;;7.50;98.00;;;;;;5011313;28;20474;-74
2023/01/12 01:43:47;;;;;;;10.27;2.10;;;7.50;98.00;;;;;;5011324;28;20460;-74
2023/01/12 01:46:43;;;;;;;1.97;1.20;;;7.50;98.00;;;;;;5011260;28;20469;-75
2023/01/12 01:49:25;;;;;;;1.30;1.10;;;7.40;98.00;;;;;;5011384;28;20461;-74
2023/01/12 01:51:54;;;;;;;1.17;1.10;;;7.40;98.00;;;;;;4994027;28;20465;-75
2023/01/12 01:54:22;;;;;;;1.30;1.20;;;7.40;98.00;;;;;;5015194;28;20482;-74
2023/01/12 01:56:55;;;;;;;1.37;1.17;;;7.30;98.00;;;;;;4997643;28;20857;-74
2023/01/12 01:59:26;;;;;;;1.30;1.03;;;7.30;98.00;;;;;;4981990;28;20781;-74
2023/01/12 02:01:55;;;;;;;1.70;1.20;;;7.30;98.00;;;;;;5015084;28;20839;-75
2023/01/12 02:04:24;;;;;;;1.40;1.20;;;7.30;98.00;;;;;;5015135;28;20473;-74
2023/01/12 02:06:52;;;;;;;1.30;1.00;;;7.30;98.00;;;;;;5014742;28;20616;-74
2023/01/12 02:09:22;;;;;;;1.83;1.00;;;7.30;98.00;;;;;;5014855;28;20463;-74
2023/01/12 02:20:50;;;;;;;1.80;1.63;;;7.40;98.00;;;;;;5150169;27;20538;-75
2023/01/12 02:23:49;;;;;;;1.30;1.00;;;7.40;98.00;;;;;;5129658;28;20463;-74
2023/01/12 02:27:04;;;;;;;7.73;1.30;;;7.40;98.00;;;;;;5129828;27;20947;-74
2023/01/12 02:29:59;;;;;;;1.97;1.40;;;7.50;98.00;;;;;;5129544;28;20481;-75
2023/01/12 02:32:34;;;;;;;1.10;1.00;;;7.50;98.00;;;;;;5129436;27;20458;-75
2023/01/12 02:35:10;;;;;;;1.47;1.13;;;7.60;98.00;;;;;;5129922;28;20468;-74
2023/01/12 02:37:45;;;;;;;2.30;1.30;;;7.70;98.00;;;;;;5129262;27;20851;-74
2023/01/12 02:40:21;;;;;;;2.40;1.23;;;7.60;98.00;;;;;;5128953;28;20486;-74
2023/01/12 02:42:54;;;;;;;1.60;1.30;;;7.70;98.00;;;;;;5129222;28;20481;-74
2023/01/12 02:45:34;;;;;;;1.57;1.20;;;7.70;98.00;;;;;;5129155;28;20496;-75
2023/01/12 02:48:09;;;;;;;1.47;1.40;;;7.70;98.00;;;;;;5127979;28;20463;-75
2023/01/12 02:50:45;;;;;;;1.43;1.37;;;7.70;98.00;;;;;;5128886;28;20455;-74
2023/01/12 02:53:17;;;;;;;1.30;1.10;;;7.70;98.00;;;;;;5129039;27;20459;-74
2023/01/12 02:55:47;;;;;;;1.90;1.20;;;7.70;98.00;;;;;;5128875;28;20944;-75
2023/01/12 02:58:17;;;;;;;1.77;1.20;;;7.80;98.00;;;;;;5127453;27;20471;-74
2023/01/12 03:00:48;;;;;;;1.27;1.20;;;7.80;98.00;;;;;;5128852;27;20467;-74
2023/01/12 03:03:17;;;;;;;3.17;1.20;;;7.80;98.00;;;;;;5128955;28;20454;-75
2023/01/12 03:05:44;;;;;;;2.13;1.50;;;7.80;98.00;;;;;;5128683;28;21028;-75
2023/01/12 03:08:15;;;;;;;3.53;1.20;;;7.80;98.00;;;;;;5128812;28;20539;-75
2023/01/12 03:10:53;;;;;;;1.33;1.10;;;8.00;98.00;;;;;;5128063;27;20464;-74
2023/01/12 03:13:22;;;;;;;1.47;1.10;;;8.00;98.00;;;;;;5127398;28;20467;-75
2023/01/12 03:15:52;;;;;;;1.30;1.20;;;8.00;98.00;;;;;;5128484;27;20469;-75
2023/01/12 03:18:29;;;;;;;1.37;1.23;;;7.90;98.00;;;;;;5128274;27;20957;-75
2023/01/12 03:21:00;;;;;;;1.10;1.00;;;7.90;98.00;;;;;;5128380;27;20463;-75
2023/01/12 03:23:32;;;;;;;6.40;1.30;;;7.90;98.00;;;;;;5128466;27;20460;-75
2023/01/12 03:26:02;;;;;;;1.30;1.10;;;7.90;98.00;;;;;;5128530;27;20934;-75
2023/01/12 03:28:34;;;;;;;2.50;1.43;;;8.00;98.00;;;;;;5128753;27;20469;-75
2023/01/12 03:31:07;;;;;;;1.53;1.37;;;8.00;98.00;;;;;;5118085;27;20462;-75
2023/01/12 03:33:38;;;;;;;1.23;1.17;;;8.00;98.00;;;;;;5113895;28;20453;-75
2023/01/12 03:36:13;;;;;;;1.10;1.00;;;8.00;98.00;;;;;;5114657;28;20990;-75
2023/01/12 03:38:48;;;;;;;1.10;1.00;;;8.00;98.00;;;;;;5114760;28;20519;-75
2023/01/12 03:41:23;;;;;;;1.53;1.20;;;8.00;98.00;;;;;;5114449;28;20811;-75
2023/01/12 03:43:52;;;;;;;1.80;1.20;;;8.10;98.00;;;;;;5114523;28;20462;-74
2023/01/12 03:46:24;;;;;;;1.10;1.00;;;8.10;98.00;;;;;;5114157;28;20669;-75
2023/01/12 03:48:58;;;;;;;1.20;1.00;;;8.10;98.00;;;;;;5114543;28;20459;-74
2023/01/12 03:51:30;;;;;;;1.10;1.00;;;8.10;98.00;;;;;;5112867;28;20513;-75
2023/01/12 03:53:58;;;;;;;2.20;1.30;;;8.10;98.00;;;;;;5114334;28;20459;-75
2023/01/12 03:56:31;;;;;;;1.70;1.53;;;8.00;98.00;;;;;;5114010;28;20455;-75
2023/01/12 03:58:58;;;;;;;2.60;1.63;;;8.00;98.00;;;;;;5114085;28;21013;-75
2023/01/12 04:01:26;;;;;;;1.10;1.00;;;7.90;98.00;;;;;;5113814;28;20973;-75
2023/01/12 04:03:56;;;;;;;1.67;1.10;;;7.90;98.00;;;;;;5113998;28;20810;-75
2023/01/12 04:06:23;;;;;;;1.20;1.00;;;7.90;98.00;;;;;;5113869;28;20462;-74
2023/01/12 04:08:50;;;;;;;1.30;1.10;;;7.90;98.00;;;;;;5113919;28;20840;-75
2023/01/12 04:14:02;;;;;;;3.00;1.87;;;7.90;98.00;;;;;;5113852;28;20447;-75
2023/01/12 04:16:29;;;;;;;1.20;1.10;;;7.90;98.00;;;;;;5113660;28;20461;-75
2023/01/12 04:18:57;;;;;;;2.43;1.43;;;7.90;98.00;;;;;;5113421;28;20843;-75
2023/01/12 04:24:09;;;;;;;1.50;1.40;;;7.90;98.00;;;;;;5113650;28;20962;-75
2023/01/12 04:26:36;;;;;;;2.90;2.00;;;7.90;98.00;;;;;;5113631;28;20939;-74
2023/01/12 04:29:03;;;;;;;1.50;1.13;;;7.90;98.00;;;;;;5113525;28;20455;-75
2023/01/12 04:31:30;;;;;;;1.13;1.00;;;7.90;98.00;;;;;;5113598;28;20454;-75
2023/01/12 04:34:00;;;;;;;1.40;1.20;;;7.90;98.00;;;;;;5113517;28;20468;-75
2023/01/12 04:36:27;;;;;;;3.30;1.60;;;7.90;98.00;;;;;;5112053;28;20553;-74
2023/01/12 04:38:54;;;;;;;1.47;1.20;;;7.90;98.00;;;;;;5113275;28;20479;-75
2023/01/12 04:41:22;;;;;;;1.10;1.00;;;7.90;98.00;;;;;;5112700;28;20460;-75
2023/01/12 04:43:49;;;;;;;2.70;1.77;;;7.90;98.00;;;;;;5112702;28;20459;-75
2023/01/12 04:46:16;;;;;;;1.50;1.30;;;8.00;98.00;;;;;;5113011;28;21014;-75
2023/01/12 04:48:44;;;;;;;1.27;1.20;;;8.00;98.00;;;;;;5113100;28;20462;-75
2023/01/12 04:51:13;;;;;;;2.70;1.30;;;8.10;98.00;;;;;;5112775;28;20468;-74
2023/01/12 04:53:42;;;;;;;3.20;1.27;;;8.10;98.00;;;;;;5112834;28;20459;-75
2023/01/12 04:56:10;;;;;;;3.43;1.13;;;8.10;98.00;;;;;;5112945;28;20969;-74
2023/01/12 04:58:37;;;;;;;1.60;1.30;;;8.10;98.00;;;;;;5111411;28;20463;-74
2023/01/12 05:01:11;;;;;;;1.80;1.00;;;8.10;98.00;;;;;;5112528;28;20822;-74
2023/01/12 05:03:38;;;;;;;1.20;1.00;;;8.10;98.00;;;;;;5112562;28;20454;-74
2023/01/12 05:06:07;;;;;;;3.53;1.07;;;8.10;98.00;;;;;;5112884;28;20477;-74
2023/01/12 05:11:21;;;;;;;1.63;1.13;;;8.10;98.00;;;;;;5112708;28;20446;-75
2023/01/12 05:13:48;;;;;;;1.43;1.20;;;8.10;98.00;;;;;;5112618;28;20533;-74
2023/01/12 05:16:17;;;;;;;4.60;1.10;;;8.10;98.00;;;;;;5112399;28;20471;-75
2023/01/12 05:18:45;;;;;;;1.10;1.10;;;8.10;98.00;;;;;;5112236;28;20474;-74
2023/01/12 05:21:14;;;;;;;1.20;1.07;;;8.10;98.00;;;;;;5112369;28;20457;-74
2023/01/12 05:23:42;;;;;;;1.20;1.00;;;8.10;98.00;;;;;;5112264;28;20452;-74
2023/01/12 05:26:11;;;;;;;1.50;1.20;;;8.20;98.00;;;;;;5112301;28;20451;-74
2023/01/12 05:28:38;;;;;;;2.23;1.37;;;8.20;98.00;;;;;;5112350;28;20456;-74
2023/01/12 05:31:07;;;;;;;2.33;1.40;;;8.30;98.00;;;;;;5111170;28;20973;-74
2023/01/12 05:33:38;;;;;;;1.20;1.00;;;8.30;98.00;;;;;;5112450;28;20455;-75
2023/01/12 05:36:06;;;;;;;1.23;1.17;;;8.20;98.00;;;;;;5112431;28;20448;-74
2023/01/12 05:38:33;;;;;;;1.20;1.10;;;8.30;98.00;;;;;;5112283;28;20452;-74
2023/01/12 05:41:04;;;;;;;1.20;1.10;;;8.30;98.00;;;;;;5112192;28;21037;-74
2023/01/12 05:46:19;;;;;;;1.17;1.10;;;8.40;98.00;;;;;;5112080;28;20517;-74
2023/01/12 05:48:46;;;;;;;1.30;1.27;;;8.40;98.00;;;;;;5092968;28;20984;-75
2023/01/12 05:51:14;;;;;;;1.77;1.27;;;8.30;98.00;;;;;;5090393;28;20460;-75
2023/01/12 05:53:41;;;;;;;1.30;1.10;;;8.30;98.00;;;;;;5090945;28;20459;-75
2023/01/12 05:56:19;;;;;;;1.30;1.10;;;8.40;98.00;;;;;;5091510;28;20498;-75
2023/01/12 05:58:51;;;;;;;1.30;1.10;;;8.40;98.00;;;;;;5091495;28;20458;-75
2023/01/12 06:01:19;;;;;;;2.30;1.40;;;8.40;98.00;;;;;;5091345;28;20461;-74
2023/01/12 06:03:49;;;;;;;6.60;1.43;;;8.40;98.00;;;;;;5091429;28;20973;-75
2023/01/12 06:06:16;;;;;;;2.10;1.37;;;8.40;98.00;;;;;;5091352;28;20491;-75
2023/01/12 06:08:43;;;;;;;1.60;1.53;;;8.40;98.00;;;;;;5091349;28;20470;-75
2023/01/12 06:13:57;;;;;;;1.77;1.70;;;8.30;98.00;;;;;;5091325;28;20495;-75
2023/01/12 06:16:25;;;;;;;2.10;1.20;;;8.30;98.00;;;;;;5089927;28;20458;-75
2023/01/12 06:18:53;;;;;;;1.83;1.33;;;8.30;98.00;;;;;;5091230;28;20541;-74
2023/01/12 06:21:21;;;;;;;1.63;1.20;;;8.30;98.00;;;;;;5091360;28;20509;-75
2023/01/12 06:23:49;;;;;;;1.60;1.20;;;8.30;98.00;;;;;;5091575;28;20462;-74
2023/01/12 06:26:18;;;;;;;1.60;1.10;;;8.40;98.00;;;;;;5091819;28;20458;-74
2023/01/12 06:28:46;;;;;;;1.17;1.10;;;8.40;98.00;;;;;;5091762;28;20452;-75
2023/01/12 06:31:14;;;;;;;3.20;1.37;;;8.30;98.00;;;;;;5092189;28;20455;-75
2023/01/12 06:33:41;;;;;;;1.60;1.10;;;8.30;98.00;;;;;;5090790;28;20473;-74
2023/01/12 06:36:09;;;;;;;1.90;1.33;;;8.30;98.00;;;;;;5091669;28;20482;-75
2023/01/12 06:38:37;;;;;;;1.53;1.27;;;8.30;98.00;;;;;;5090701;28;20987;-75
2023/01/12 06:42:27;;;;;;;2.17;1.10;;;8.30;98.00;;;;;;5091813;28;20481;-75
2023/01/12 06:43:59;;;;;;;2.17;1.40;;;8.30;98.00;;;;;;5091895;28;20457;-74
2023/01/12 06:46:27;;;;;;;2.03;1.30;;;8.30;98.00;;;;;;5091397;28;20471;-75
2023/01/12 06:48:56;;;;;;;1.70;1.10;;;8.30;98.00;;;;;;5091096;28;20470;-74
2023/01/12 06:51:23;;;;;;;1.20;1.10;;;8.20;98.00;;;;;;5090910;28;20873;-74
2023/01/12 06:53:50;;;;;;;5.10;2.00;;;8.20;98.00;;;;;;5090985;28;20493;-75
2023/01/12 06:56:17;;;;;;;1.73;1.10;;;8.20;98.00;;;;;;5090905;28;20825;-75
2023/01/12 06:58:44;;;;;;;6.43;1.30;;;8.30;98.00;;;;;;5091150;28;20918;-75
2023/01/12 07:01:13;;;;;;;1.83;1.33;;;8.30;98.00;;;;;;5089297;28;20893;-71
2023/01/12 07:03:40;;;;;;;1.83;1.20;;;8.30;98.00;;;;;;5091266;28;20459;-71
2023/01/12 07:06:07;;;;;;;1.10;1.00;;;8.30;98.00;;;;;;5093262;28;20451;-72
2023/01/12 07:08:35;;;;;;;2.80;1.67;;;8.40;98.00;;;;;;5095038;28;20550;-72
2023/01/12 07:11:03;;;;;;;3.83;1.60;;;8.50;98.00;;;;;;5094605;28;20459;-71
2023/01/12 07:13:30;;;;;;;1.80;1.10;;;8.40;98.00;;;;;;5094543;28;20458;-71
2023/01/12 07:16:00;;;;;;;1.20;1.10;;;8.40;98.00;;;;;;5094542;28;20458;-72
2023/01/12 07:18:29;;;;;;;6.60;2.03;;;8.50;98.00;;;;;;5076277;28;20544;-71
2023/01/12 07:20:57;;;;;;;1.80;1.20;;;8.40;98.00;;;;;;5094339;28;20482;-73
2023/01/12 07:23:25;;;;;;;5.93;2.40;;;8.40;98.00;;;;;;5093156;28;20472;-73
2023/01/12 07:25:52;;;;;;;1.43;1.07;;;8.40;98.00;;;;;;5094561;28;20950;-72
2023/01/12 07:28:19;;;;;;;1.27;1.23;;;8.40;98.00;;;;;;5094304;28;20463;-73
2023/01/12 07:30:46;;;;;;;1.20;1.00;;;8.40;98.00;;;;;;5094289;28;20968;-73
2023/01/12 07:33:15;;;;;;;2.47;1.30;;;8.40;98.00;;;;;;5094431;28;20451;-72
2023/01/12 07:35:44;;;;;;;1.53;1.40;;;8.40;98.00;;;;;;5094675;28;20456;-74
2023/01/12 07:38:12;;;;;;;1.20;1.10;;;8.40;98.00;;;;;;5094277;28;20460;-72
2023/01/12 07:40:39;;;;;;;1.10;1.00;;;8.50;98.00;;;;;;5091396;28;20490;-73
2023/01/12 07:43:08;;;;;;;1.40;1.20;;;8.50;98.00;;;;;;5093942;28;20454;-74
2023/01/12 07:45:35;;;;;;;1.87;1.33;;;8.50;98.00;;;;;;5093938;28;20461;-73
2023/01/12 07:48:03;;;;;;;1.57;1.13;;;8.50;98.00;;;;;;5093813;28;20466;-72
2023/01/12 07:50:30;;;;;;;1.40;1.20;;;8.50;98.00;;;;;;5093816;28;20954;-73
2023/01/12 07:53:02;;;;;;;2.60;1.00;;;8.50;98.00;;;;;;5093898;28;20466;-73
2023/01/12 07:55:30;;;;;;;2.80;1.20;;;8.60;98.00;;;;;;5093933;28;20459;-74
2023/01/12 07:57:58;;;;;;;8.70;1.50;;;8.60;98.00;;;;;;5092611;28;20562;-74
2023/01/12 08:00:29;;;;;;;1.70;1.10;;;8.60;98.00;;;;;;5093677;28;20896;-73
2023/01/12 08:03:06;;;;;;;1.60;1.10;;;8.60;98.00;;;;;;5093503;28;20945;-72
2023/01/12 08:05:34;;;;;;;1.10;1.00;;;8.60;98.00;;;;;;5093810;28;20876;-73
2023/01/12 08:08:03;;;;;;;1.10;0.90;;;8.60;98.00;;;;;;5093509;28;20458;-72
2023/01/12 08:10:30;;;;;;;1.33;1.17;;;8.70;98.00;;;;;;5093394;28;20467;-72
2023/01/12 08:12:58;;;;;;;1.30;1.07;;;8.80;98.00;;;;;;5093459;28;20462;-73
2023/01/12 08:15:26;;;;;;;3.10;1.30;;;8.80;98.00;;;;;;5093358;28;20460;-72
2023/01/12 08:17:57;;;;;;;2.13;1.20;;;8.80;98.00;;;;;;5093050;28;20461;-73
2023/01/12 08:20:29;;;;;;;1.20;1.10;;;8.80;98.00;;;;;;5093269;28;20482;-72
2023/01/12 08:23:01;;;;;;;1.30;1.00;;;8.90;98.00;;;;;;5093467;28;20464;-73
2023/01/12 08:25:33;;;;;;;1.83;1.10;;;8.90;98.00;;;;;;5093253;28;20451;-73
2023/01/12 08:28:04;;;;;;;1.67;1.30;;;8.90;98.00;;;;;;5093116;28;20467;-73
2023/01/12 08:30:31;;;;;;;1.33;1.17;;;9.00;98.00;;;;;;5092193;28;21048;-73
2023/01/12 08:33:01;;;;;;;1.20;1.10;;;9.10;98.00;;;;;;5093224;28;20474;-73
2023/01/12 08:35:33;;;;;;;1.20;1.10;;;9.10;98.00;;;;;;5093228;28;20816;-72
2023/01/12 08:38:00;;;;;;;1.30;1.10;;;9.20;98.00;;;;;;5092764;28;20470;-71
2023/01/12 08:41:31;;;;;;;1.17;1.00;;;9.20;98.00;;;;;;5092889;28;20720;-72
2023/01/12 08:44:00;;;;;;;1.57;1.20;;;9.30;98.00;;;;;;5092542;28;20868;-72
2023/01/12 08:46:06;;;;;;;1.17;1.00;;;9.30;98.00;;;;;;5101251;28;20478;-71
2023/01/12 08:48:34;;;;;;;1.20;1.00;;;9.40;98.00;;;;;;5100085;28;20469;-73
2023/01/12 08:51:02;;;;;;;1.20;1.00;;;9.40;98.00;;;;;;5087948;28;20558;-72
2023/01/12 08:53:29;;;;;;;2.40;1.30;;;9.40;98.00;;;;;;5100251;28;20459;-73
2023/01/12 08:55:58;;;;;;;1.20;1.10;;;9.50;98.00;;;;;;5106947;28;20854;-73
2023/01/12 08:58:25;;;;;;;1.93;1.10;;;9.50;98.00;;;;;;5100766;28;20462;-73
2023/01/12 09:00:52;;;;;;;1.50;1.10;;;9.50;98.00;;;;;;5108147;28;20474;-73
2023/01/12 09:03:19;;;;;;;1.60;1.33;;;9.50;98.00;;;;;;5107100;28;20465;-72
2023/01/12 09:05:47;;;;;;;2.23;1.10;;;9.50;98.00;;;;;;5088271;28;20843;-68
2023/01/12 09:08:14;;;;;;;5.63;1.10;;;9.60;98.00;;;;;;5109663;28;20534;-67
2023/01/12 09:10:42;;;;;;;3.63;1.50;;;9.70;98.00;;;;;;5108707;28;20449;-67
2023/01/12 09:13:14;;;;;;;1.90;1.17;;;9.80;98.00;;;;;;5098985;28;20455;-68
2023/01/12 09:15:41;;;;;;;5.53;1.20;;;9.90;98.00;;;;;;5109678;28;20447;-77
2023/01/12 09:18:08;;;;;;;1.20;1.00;;;10.00;98.00;;;;;;5088060;28;20500;-73
2023/01/12 09:20:36;;;;;;;1.53;1.17;;;10.00;98.00;;;;;;5090427;28;20483;-73
2023/01/12 09:23:03;;;;;;;1.20;1.03;;;9.90;98.00;;;;;;5107591;28;20517;-73
2023/01/12 09:25:30;;;;;;;2.27;1.17;;;9.90;98.00;;;;;;5100398;28;20456;-74
2023/01/12 09:27:58;;;;;;;1.20;1.00;;;9.80;98.00;;;;;;5109349;28;20476;-74
2023/01/12 09:30:26;;;;;;;2.80;1.33;;;9.80;98.00;;;;;;5108456;28;20462;-74
2023/01/12 09:32:54;;;;;;;1.93;1.20;;;9.70;98.00;;;;;;5089169;28;20989;-73
2023/01/12 09:35:22;;;;;;;6.00;1.30;;;9.70;98.00;;;;;;5089399;28;20491;-73
2023/01/12 09:37:49;;;;;;;1.83;1.20;;;9.80;98.00;;;;;;5090817;28;20447;-73
2023/01/12 09:40:18;;;;;;;1.37;1.17;;;9.80;98.00;;;;;;5098540;28;20461;-73
2023/01/12 09:48:22;;;;;;;1.20;1.00;;;9.60;98.00;;;;;;5088930;28;21079;-74
2023/01/12 09:50:56;;;;;;;1.80;1.07;;;9.70;98.00;;;;;;5100965;28;20546;-71
2023/01/12 09:53:26;;;;;;;1.47;1.03;;;9.80;98.00;;;;;;5107324;28;20509;-74
2023/01/12 09:56:01;;;;;;;4.40;1.23;;;9.80;98.00;;;;;;5100886;28;20478;-74
2023/01/12 09:58:58;;;;;;;1.20;1.00;;;9.80;98.00;;;;;;5098942;28;20466;-73
2023/01/12 10:01:27;;;;;;;2.00;1.13;;;9.80;98.00;;;;;;5083445;28;20501;-73
2023/01/12 10:03:55;;;;;;;5.00;1.93;;;9.80;98.00;;;;;;5088273;28;20449;-72
2023/01/12 10:06:22;;;;;;;6.60;1.33;;;9.80;98.00;;;;;;5100480;28;20464;-72
2023/01/12 10:08:51;;;;;;;1.20;1.10;;;9.90;98.00;;;;;;5107634;28;20456;-72
2023/01/12 10:11:24;;;;;;;1.53;1.13;;;9.90;98.00;;;;;;5097683;28;20463;-72
2023/01/12 10:14:30;;;;;;;1.27;1.23;;;9.90;98.00;;;;;;5091346;28;20850;-73
2023/01/12 10:17:14;;;;;;;1.30;1.20;;;9.90;98.00;;;;;;5090728;28;20482;-72
2023/01/12 10:19:49;;;;;;;1.40;1.20;;;9.90;98.00;;;;;;5088531;28;20472;-72
2023/01/12 10:22:35;;;;;;;1.10;1.00;;;10.00;98.00;;;;;;5099717;28;20487;-72
2023/01/12 10:25:14;;;;;;;1.17;1.00;;;9.90;98.00;;;;;;5106560;28;20578;-65
2023/01/12 10:27:44;;;;;;;2.07;1.40;;;10.00;98.00;;;;;;5102600;28;20819;-65
2023/01/12 10:30:16;;;;;;;1.20;1.00;;;10.40;98.00;;;;;;5108301;28;20984;-72
2023/01/12 10:32:45;;;;;;;1.20;1.10;;;10.80;98.00;;;;;;5098470;28;20469;-72
2023/01/12 10:37:58;;;;;;;3.43;1.47;;;10.70;98.00;;;;;;5100173;28;20464;-67
2023/01/12 10:40:29;;;;;;;2.70;1.40;;;10.60;98.00;;;;;;5086278;28;20826;-68
2023/01/12 10:43:30;;;;;;;1.40;1.20;;;10.50;98.00;;;;;;5076070;28;20484;-68
2023/01/12 10:46:08;;;;;;;1.50;1.30;;;10.40;98.00;;;;;;5088551;28;20918;-68
2023/01/12 10:48:38;;;;;;;10.23;1.37;;;10.40;98.00;;;;;;5099585;28;20452;-68
2023/01/12 10:51:08;;;;;;;1.30;1.10;;;10.30;98.00;;;;;;5092116;28;20474;-68
2023/01/12 10:53:41;;;;;;;1.20;1.20;;;10.40;98.00;;;;;;5081053;28;20468;-68
2023/01/12 10:56:22;;;;;;;3.03;1.30;;;10.40;98.00;;;;;;5092479;28;20464;-68
2023/01/12 10:58:54;;;;;;;3.97;1.40;;;10.60;98.00;;;;;;5093164;28;21003;-68
2023/01/12 11:01:22;;;;;;;1.20;1.00;;;10.50;98.00;;;;;;5093773;28;20575;-68
2023/01/12 11:03:51;;;;;;;2.23;1.00;;;10.50;98.00;;;;;;5092716;28;20464;-68
2023/01/12 11:06:29;;;;;;;2.53;1.20;;;10.60;98.00;;;;;;5092678;28;20455;-68
2023/01/12 11:08:56;;;;;;;1.10;1.00;;;10.50;98.00;;;;;;5104300;28;20487;-69
2023/01/12 11:11:28;;;;;;;1.60;1.30;;;10.50;98.00;;;;;;5101129;28;20537;-69
2023/01/12 11:13:57;;;;;;;2.00;1.17;;;10.40;98.00;;;;;;5073000;28;20545;-68
2023/01/12 11:16:26;;;;;;;2.03;1.10;;;10.40;98.00;;;;;;5102580;28;20527;-69
2023/01/12 11:19:13;;;;;;;1.20;1.00;;;10.30;98.00;;;;;;5092227;28;20460;-69
2023/01/12 11:21:44;;;;;;;1.20;1.00;;;10.30;98.00;;;;;;5102990;28;20484;-69
2023/01/12 11:24:15;;;;;;;1.97;1.30;;;10.30;98.00;;;;;;5102845;28;20464;-69
2023/01/12 11:26:48;;;;;;;1.30;1.20;;;10.40;98.00;;;;;;5110305;27;21155;-69
2023/01/12 11:29:27;;;;;;;1.40;1.10;;;10.40;98.00;;;;;;5103626;28;20457;-69
2023/01/12 11:32:00;;;;;;;1.30;1.10;;;10.40;98.00;;;;;;5103275;28;20463;-69
2023/01/12 11:34:35;;;;;;;2.43;1.30;;;10.50;98.00;;;;;;5092438;28;20505;-69
2023/01/12 11:37:10;;;;;;;1.20;1.07;;;10.40;98.00;;;;;;5097138;28;20447;-69
2023/01/12 11:39:56;;;;;;;1.30;1.10;;;10.40;98.00;;;;;;5094335;28;20972;-68
2023/01/12 11:45:22;;;;;;;1.50;1.10;;;10.50;98.00;;;;;;5100047;28;20455;-69
2023/01/12 11:47:54;;;;;;;3.93;1.10;;;10.50;98.00;;;;;;5086215;28;20464;-69
2023/01/12 11:50:28;;;;;;;1.40;1.20;;;10.40;98.00;;;;;;5103265;28;20460;-69
2023/01/12 11:52:56;;;;;;;1.13;1.00;;;10.40;98.00;;;;;;5096903;28;20463;-69
2023/01/12 11:55:48;;;;;;;1.57;1.10;;;10.40;98.00;;;;;;5097996;28;20825;-69
2023/01/12 11:58:24;;;;;;;1.20;1.10;;;10.40;98.00;;;;;;5100205;28;20464;-68
2023/01/12 12:01:01;;;;;;;1.20;1.10;;;10.40;98.00;;;;;;5111455;28;21093;-69
2023/01/12 12:04:00;;;;;;;1.23;1.10;;;10.50;98.00;;;;;;5093958;28;20467;-70
2023/01/12 12:07:12;;;;;;;1.20;1.00;;;10.60;98.00;;;;;;5063208;28;20501;-69
2023/01/12 12:09:50;;;;;;;1.50;1.10;;;10.60;98.00;;;;;;5072504;28;20463;-69
2023/01/12 12:12:25;;;;;;;1.40;1.10;;;10.70;98.00;;;;;;5079990;28;20829;-69
2023/01/12 12:15:07;;;;;;;1.20;1.10;;;10.90;98.00;;;;;;5102897;28;20803;-68
2023/01/12 12:17:45;;;;;;;1.37;1.00;;;10.90;98.00;;;;;;5096316;28;20486;-68
2023/01/12 12:20:22;;;;;;;1.20;1.00;;;10.90;98.00;;;;;;5091802;28;20467;-68
2023/01/12 12:23:09;;;;;;;1.20;1.10;;;10.90;98.00;;;;;;5092096;28;20838;-68
2023/01/12 12:25:47;;;;;;;8.13;1.23;;;11.00;98.00;;;;;;5102958;28;20463;-68
2023/01/12 12:28:47;;;;;;;1.53;1.10;;;11.10;98.00;;;;;;5111196;28;20469;-69
2023/01/12 12:31:40;;;;;;;1.20;1.10;;;11.10;98.00;;;;;;5088933;28;20456;-69
2023/01/12 12:34:40;;;;;;;1.20;1.10;;;11.10;98.00;;;;;;5101489;28;20460;-69
2023/01/12 12:37:17;;;;;;;1.20;1.10;;;11.20;98.00;;;;;;5087270;28;20460;-69
2023/01/12 12:39:55;;;;;;;1.20;0.90;;;11.30;98.00;;;;;;5099171;28;20475;-69
2023/01/12 12:45:38;;;;;;;1.27;1.03;;;11.40;98.00;;;;;;5089786;28;20462;-70
2023/01/12 12:48:12;;;;;;;3.30;1.10;;;11.40;98.00;;;;;;5093589;28;20470;-70
2023/01/12 12:50:45;;;;;;;1.10;1.00;;;11.40;98.00;;;;;;5100922;28;20456;-69
2023/01/12 12:53:20;;;;;;;1.43;1.20;;;11.50;98.00;;;;;;5098503;28;20463;-69
2023/01/12 12:55:51;;;;;;;1.77;1.10;;;11.50;98.00;;;;;;5101928;28;20569;-68
2023/01/12 12:58:30;;;;;;;1.27;1.00;;;11.60;98.00;;;;;;5102306;28;20480;-69
2023/01/12 13:01:41;;;;;;;6.10;1.33;;;11.60;98.00;;;;;;5095893;28;20450;-69
2023/01/12 13:04:10;;;;;;;1.30;1.10;;;11.50;98.00;;;;;;5089728;28;20462;-71
2023/01/12 13:06:39;;;;;;;1.70;1.37;;;11.50;98.00;;;;;;5100587;28;20993;-69
2023/01/12 13:09:35;;;;;;;1.20;1.00;;;11.40;98.00;;;;;;5101057;28;20467;-70
2023/01/12 13:12:29;;;;;;;1.20;1.00;;;11.30;98.00;;;;;;5109842;28;20464;-71
2023/01/12 13:15:25;;;;;;;1.40;1.03;;;11.50;98.00;;;;;;5091597;28;20456;-69
2023/01/12 13:17:54;;;;;;;1.50;1.10;;;11.50;98.00;;;;;;5096871;28;20456;-71
2023/01/12 13:21:01;;;;;;;1.20;1.07;;;11.40;98.00;;;;;;5100040;28;20844;-70
2023/01/12 13:23:49;;;;;;;1.43;1.00;;;11.30;98.00;;;;;;5099989;28;20526;-71
2023/01/12 13:26:41;;;;;;;1.40;1.00;;;11.30;98.00;;;;;;5109375;28;20455;-71
2023/01/12 13:29:43;;;;;;;1.20;1.10;;;11.20;98.00;;;;;;5070034;28;20459;-71
2023/01/12 13:32:47;;;;;;;1.80;1.20;;;11.20;98.00;;;;;;5109344;28;20454;-71
2023/01/12 13:35:53;;;;;;;1.20;1.00;;;11.10;98.00;;;;;;5100219;28;21024;-71
2023/01/12 13:38:38;;;;;;;1.67;1.10;;;11.00;98.00;;;;;;5092508;28;20466;-71
2023/01/12 13:43:13;;;;;;;1.20;1.00;;;11.00;98.00;;;;;;5100678;28;20455;-72
2023/01/12 13:44:06;;;;;;;1.43;1.10;;;11.00;98.00;;;;;;5099349;28;20520;-71
2023/01/12 13:46:43;;;;;;;1.13;1.00;;;11.00;98.00;;;;;;5105376;28;20895;-70
2023/01/12 13:49:28;;;;;;;1.20;1.00;;;11.00;98.00;;;;;;5109743;28;20855;-71
2023/01/12 13:52:07;;;;;;;1.20;1.00;;;11.00;98.00;;;;;;5111917;28;20950;-71
2023/01/12 13:54:35;;;;;;;1.20;1.10;;;11.00;98.00;;;;;;5111991;28;20451;-70
2023/01/12 13:57:04;;;;;;;1.53;1.10;;;11.00;98.00;;;;;;5111875;28;20462;-70
2023/01/12 13:59:33;;;;;;;1.37;1.00;;;10.90;98.00;;;;;;5111762;28;20905;-70
2023/01/12 14:02:04;;;;;;;1.87;1.10;;;10.90;98.00;;;;;;5111875;28;20566;-70
2023/01/12 14:05:02;;;;;;;1.70;1.10;;;10.90;98.00;;;;;;5111882;28;20457;-70
2023/01/12 14:07:48;;;;;;;1.50;1.00;;;11.00;98.00;;;;;;5111828;28;20454;-70